Terminal Aerodrome Forecast
Issued by NWS

Home | Current Version | Previous Version | Text Only | Print | Product List | Glossary On
Versions: 1 2 3 4 5 6 7 8 9 10 11 12 13 14 15 16 17 18 19 20 21 22 23 24 25 26 27 28 29 30
000
FTUS41 KCTP 282334
TAFJST
TAF
KJST 282334Z 2900/2924 24004KT 2SM RA BR BKN002 OVC050
      TEMPO 2900/2902 5SM -RA BR SCT002 OVC050
     FM290300 31005KT 5SM -SHRA BR OVC020
     FM290900 29004KT 2SM BR OVC007
     FM291500 32006KT P6SM OVC050=

USA.gov is the U.S. government's official web portal to all federal, state and local government web resources and services.